SKW3478 KSTS-KBUR
Flight info
| Callsign | SKW3478 |
|---|---|
| Flight time | 1h 1m |
| Altitude | 35000 |
| Route | RREHD1 HADLY KTINA CISKO RDHOT ROKKR3 |
| Aircraft | E75L/M-SDE3GILORVW/S |
Departure
| Time | 2026-04-26 04:19 |
|---|---|
| Airport | Charles M. Schulz Sonoma County Airport (KSTS) |
Arrival
| Time | 2026-04-26 05:21 |
|---|---|
| Airport | Hollywood Burbank/Bob Hope Airport (KBUR) |
| Time | Latitude | Longitude | Altitude | Speed | Heading |
|---|---|---|---|---|---|
| 2026-04-26 03:29 | 38.51046 | -122.80695 | 119 ft | 0 kts | 67° |
| 2026-04-26 04:05 | 38.51044 | -122.80703 | 119 ft | 2 kts | 67° |
| 2026-04-26 04:06 | 38.51038 | -122.80720 | 119 ft | 2 kts | 68° |
| 2026-04-26 04:06 | 38.51029 | -122.80737 | 119 ft | 2 kts | 36° |
| 2026-04-26 04:06 | 38.51016 | -122.80744 | 119 ft | 2 kts | 10° |
| 2026-04-26 04:06 | 38.51001 | -122.80744 | 119 ft | 2 kts | 344° |
| 2026-04-26 04:07 | 38.50992 | -122.80740 | 119 ft | 0 kts | 332° |
| 2026-04-26 04:07 | 38.50992 | -122.80739 | 119 ft | 0 kts | 332° |
| 2026-04-26 04:12 | 38.50993 | -122.80740 | 119 ft | 0 kts | 332° |
| 2026-04-26 04:13 | 38.51003 | -122.80746 | 119 ft | 2 kts | 337° |
| 2026-04-26 04:13 | 38.51029 | -122.80759 | 119 ft | 5 kts | 339° |
| 2026-04-26 04:13 | 38.51067 | -122.80777 | 118 ft | 6 kts | 338° |
| 2026-04-26 04:13 | 38.51098 | -122.80823 | 118 ft | 7 kts | 273° |
| 2026-04-26 04:14 | 38.51103 | -122.80872 | 118 ft | 5 kts | 303° |
| 2026-04-26 04:14 | 38.51143 | -122.80900 | 117 ft | 7 kts | 339° |
| 2026-04-26 04:14 | 38.51197 | -122.80927 | 117 ft | 9 kts | 338° |
| 2026-04-26 04:14 | 38.51261 | -122.80962 | 116 ft | 10 kts | 336° |
| 2026-04-26 04:15 | 38.51336 | -122.81001 | 115 ft | 12 kts | 336° |
| 2026-04-26 04:15 | 38.51423 | -122.81050 | 114 ft | 14 kts | 336° |
| 2026-04-26 04:15 | 38.51520 | -122.81101 | 112 ft | 16 kts | 337° |
| 2026-04-26 04:15 | 38.51627 | -122.81159 | 111 ft | 15 kts | 338° |
| 2026-04-26 04:16 | 38.51711 | -122.81203 | 109 ft | 9 kts | 335° |
| 2026-04-26 04:16 | 38.51767 | -122.81240 | 108 ft | 5 kts | 319° |
| 2026-04-26 04:16 | 38.51777 | -122.81258 | 108 ft | 2 kts | 291° |
| 2026-04-26 04:16 | 38.51776 | -122.81278 | 108 ft | 0 kts | 246° |
| 2026-04-26 04:17 | 38.51775 | -122.81279 | 108 ft | 0 kts | 246° |
| 2026-04-26 04:17 | 38.51772 | -122.81290 | 108 ft | 2 kts | 247° |
| 2026-04-26 04:18 | 38.51759 | -122.81329 | 108 ft | 5 kts | 246° |
| 2026-04-26 04:18 | 38.51739 | -122.81368 | 108 ft | 3 kts | 205° |
| 2026-04-26 04:18 | 38.51718 | -122.81365 | 108 ft | 2 kts | 158° |
| 2026-04-26 04:18 | 38.51707 | -122.81360 | 108 ft | 0 kts | 158° |
| 2026-04-26 04:19 | 38.51671 | -122.81341 | 109 ft | 24 kts | 157° |
| 2026-04-26 04:19 | 38.51270 | -122.81123 | 116 ft | 97 kts | 157° |
| 2026-04-26 04:19 | 38.50465 | -122.80692 | 208 ft | 143 kts | 157° |
| 2026-04-26 04:19 | 38.49529 | -122.80190 | 751 ft | 149 kts | 162° |
| 2026-04-26 04:20 | 38.48491 | -122.80068 | 1270 ft | 157 kts | 194° |
| 2026-04-26 04:20 | 38.47551 | -122.80769 | 1681 ft | 165 kts | 228° |
| 2026-04-26 04:20 | 38.46919 | -122.82134 | 1759 ft | 196 kts | 252° |
| 2026-04-26 04:20 | 38.46381 | -122.83859 | 2010 ft | 221 kts | 246° |
| 2026-04-26 04:21 | 38.45652 | -122.85646 | 2536 ft | 232 kts | 242° |
| 2026-04-26 04:21 | 38.44867 | -122.87411 | 3397 ft | 228 kts | 241° |
| 2026-04-26 04:21 | 38.44054 | -122.89172 | 4023 ft | 235 kts | 240° |
| 2026-04-26 04:21 | 38.43204 | -122.90972 | 4660 ft | 242 kts | 240° |
| 2026-04-26 04:22 | 38.42331 | -122.92800 | 5335 ft | 247 kts | 240° |
| 2026-04-26 04:22 | 38.41430 | -122.94672 | 6041 ft | 250 kts | 240° |
| 2026-04-26 04:22 | 38.40521 | -122.96556 | 6748 ft | 253 kts | 240° |
| 2026-04-26 04:22 | 38.39599 | -122.98464 | 7447 ft | 257 kts | 240° |
| 2026-04-26 04:23 | 38.38486 | -123.00271 | 8101 ft | 265 kts | 216° |
| 2026-04-26 04:23 | 38.36733 | -123.01099 | 8601 ft | 279 kts | 184° |
| 2026-04-26 04:23 | 38.34756 | -123.01123 | 9051 ft | 293 kts | 180° |
| 2026-04-26 04:23 | 38.32693 | -123.01128 | 9648 ft | 300 kts | 181° |
| 2026-04-26 04:24 | 38.30599 | -123.01144 | 10346 ft | 304 kts | 181° |
| 2026-04-26 04:24 | 38.28459 | -123.01164 | 11004 ft | 310 kts | 180° |
| 2026-04-26 04:24 | 38.26282 | -123.01188 | 11562 ft | 319 kts | 180° |
| 2026-04-26 04:24 | 38.24015 | -123.01213 | 12075 ft | 330 kts | 180° |
| 2026-04-26 04:25 | 38.21697 | -123.01239 | 12608 ft | 339 kts | 180° |
| 2026-04-26 04:25 | 38.19327 | -123.01266 | 13242 ft | 344 kts | 180° |
| 2026-04-26 04:25 | 38.16933 | -123.01293 | 13945 ft | 348 kts | 180° |
| 2026-04-26 04:25 | 38.14484 | -123.01321 | 14662 ft | 351 kts | 180° |
| 2026-04-26 04:26 | 38.12052 | -123.01348 | 15322 ft | 354 kts | 180° |
| 2026-04-26 04:26 | 38.09582 | -123.01376 | 15953 ft | 358 kts | 180° |
| 2026-04-26 04:26 | 38.07079 | -123.01235 | 16523 ft | 362 kts | 166° |
| 2026-04-26 04:26 | 38.04750 | -123.00053 | 17080 ft | 364 kts | 150° |
| 2026-04-26 04:27 | 38.02490 | -122.98562 | 17666 ft | 367 kts | 150° |
| 2026-04-26 04:27 | 38.00243 | -122.97073 | 18240 ft | 371 kts | 150° |
| 2026-04-26 04:27 | 37.97929 | -122.95538 | 18829 ft | 374 kts | 150° |
| 2026-04-26 04:27 | 37.95625 | -122.94009 | 19424 ft | 376 kts | 150° |
| 2026-04-26 04:28 | 37.93302 | -122.92468 | 20024 ft | 378 kts | 150° |
| 2026-04-26 04:28 | 37.90979 | -122.90929 | 20599 ft | 380 kts | 150° |
| 2026-04-26 04:28 | 37.88633 | -122.89374 | 21147 ft | 382 kts | 150° |
| 2026-04-26 04:28 | 37.86298 | -122.87829 | 21675 ft | 385 kts | 150° |
| 2026-04-26 04:29 | 37.83908 | -122.86248 | 22193 ft | 387 kts | 149° |
| 2026-04-26 04:29 | 37.81508 | -122.84661 | 22711 ft | 389 kts | 150° |
| 2026-04-26 04:29 | 37.79121 | -122.83086 | 23209 ft | 391 kts | 150° |
| 2026-04-26 04:29 | 37.76684 | -122.81477 | 23696 ft | 394 kts | 149° |
| 2026-04-26 04:30 | 37.74241 | -122.79866 | 24144 ft | 397 kts | 150° |
| 2026-04-26 04:30 | 37.71803 | -122.78259 | 24565 ft | 400 kts | 150° |
| 2026-04-26 04:30 | 37.69324 | -122.76627 | 25015 ft | 402 kts | 150° |
| 2026-04-26 04:30 | 37.66846 | -122.74996 | 25462 ft | 404 kts | 151° |
| 2026-04-26 04:31 | 37.64331 | -122.73344 | 25903 ft | 406 kts | 150° |
| 2026-04-26 04:31 | 37.61815 | -122.71691 | 26341 ft | 408 kts | 151° |
| 2026-04-26 04:31 | 37.59287 | -122.70031 | 26747 ft | 411 kts | 151° |
| 2026-04-26 04:31 | 37.56754 | -122.68370 | 27137 ft | 414 kts | 151° |
| 2026-04-26 04:32 | 37.54194 | -122.66692 | 27546 ft | 416 kts | 151° |
| 2026-04-26 04:32 | 37.51608 | -122.64999 | 27928 ft | 418 kts | 151° |
| 2026-04-26 04:32 | 37.49033 | -122.63314 | 28330 ft | 420 kts | 151° |
| 2026-04-26 04:32 | 37.46415 | -122.61601 | 28723 ft | 422 kts | 151° |
| 2026-04-26 04:33 | 37.43802 | -122.59895 | 29083 ft | 424 kts | 152° |
| 2026-04-26 04:33 | 37.41232 | -122.58063 | 29442 ft | 426 kts | 144° |
| 2026-04-26 04:33 | 37.38926 | -122.55726 | 29804 ft | 427 kts | 134° |
| 2026-04-26 04:33 | 37.36934 | -122.52966 | 30173 ft | 428 kts | 129° |
| 2026-04-26 04:34 | 37.34978 | -122.50147 | 30537 ft | 429 kts | 130° |
| 2026-04-26 04:34 | 37.32963 | -122.47284 | 30928 ft | 429 kts | 130° |
| 2026-04-26 04:34 | 37.30998 | -122.44504 | 31309 ft | 429 kts | 130° |
| 2026-04-26 04:34 | 37.29015 | -122.41705 | 31705 ft | 428 kts | 130° |
| 2026-04-26 04:35 | 37.27042 | -122.38922 | 32111 ft | 427 kts | 130° |
| 2026-04-26 04:35 | 37.25069 | -122.36143 | 32471 ft | 427 kts | 131° |
| 2026-04-26 04:35 | 37.23100 | -122.33370 | 32823 ft | 427 kts | 131° |
| 2026-04-26 04:35 | 37.21123 | -122.30590 | 33155 ft | 427 kts | 131° |
| 2026-04-26 04:36 | 37.19149 | -122.27817 | 33451 ft | 427 kts | 131° |
| 2026-04-26 04:36 | 37.17191 | -122.25068 | 33703 ft | 427 kts | 132° |
| 2026-04-26 04:36 | 37.15203 | -122.22279 | 33956 ft | 427 kts | 132° |
| 2026-04-26 04:36 | 37.13218 | -122.19496 | 34184 ft | 427 kts | 132° |
| 2026-04-26 04:37 | 37.11232 | -122.16715 | 34399 ft | 427 kts | 132° |
| 2026-04-26 04:37 | 37.09241 | -122.13930 | 34657 ft | 427 kts | 132° |
| 2026-04-26 04:37 | 37.07267 | -122.11169 | 34843 ft | 421 kts | 132° |
| 2026-04-26 04:38 | 37.03357 | -122.05711 | 34893 ft | 425 kts | 133° |
| 2026-04-26 04:38 | 36.99400 | -122.00195 | 34908 ft | 427 kts | 133° |
| 2026-04-26 04:39 | 36.95415 | -121.94649 | 34911 ft | 427 kts | 133° |
| 2026-04-26 04:39 | 36.91416 | -121.89094 | 34926 ft | 428 kts | 133° |
| 2026-04-26 04:40 | 36.87431 | -121.83567 | 34922 ft | 429 kts | 133° |
| 2026-04-26 04:40 | 36.83410 | -121.78001 | 34915 ft | 428 kts | 133° |
| 2026-04-26 04:41 | 36.79429 | -121.72497 | 34915 ft | 428 kts | 133° |
| 2026-04-26 04:41 | 36.75451 | -121.67008 | 34921 ft | 428 kts | 133° |
| 2026-04-26 04:42 | 36.71450 | -121.61497 | 34926 ft | 428 kts | 133° |
| 2026-04-26 04:42 | 36.67436 | -121.55975 | 34910 ft | 429 kts | 133° |
| 2026-04-26 04:43 | 36.63447 | -121.50500 | 34921 ft | 429 kts | 133° |
| 2026-04-26 04:43 | 36.59424 | -121.44985 | 34909 ft | 430 kts | 133° |
| 2026-04-26 04:44 | 36.55406 | -121.39487 | 34905 ft | 430 kts | 133° |
| 2026-04-26 04:44 | 36.51378 | -121.33984 | 34887 ft | 429 kts | 134° |
| 2026-04-26 04:45 | 36.47366 | -121.28513 | 34882 ft | 430 kts | 134° |
| 2026-04-26 04:45 | 36.43317 | -121.22999 | 34879 ft | 429 kts | 134° |
| 2026-04-26 04:46 | 36.39287 | -121.17522 | 34883 ft | 430 kts | 135° |
| 2026-04-26 04:46 | 36.34782 | -121.12608 | 34884 ft | 428 kts | 142° |
| 2026-04-26 04:47 | 36.30184 | -121.07886 | 34890 ft | 428 kts | 142° |
| 2026-04-26 04:47 | 36.25571 | -121.03159 | 34899 ft | 429 kts | 143° |
| 2026-04-26 04:48 | 36.18670 | -120.96098 | 34906 ft | 429 kts | 143° |
| 2026-04-26 04:48 | 36.14061 | -120.91393 | 34898 ft | 430 kts | 143° |
| 2026-04-26 04:49 | 36.09452 | -120.86696 | 34897 ft | 430 kts | 143° |
| 2026-04-26 04:49 | 36.04832 | -120.81993 | 34892 ft | 430 kts | 143° |
| 2026-04-26 04:50 | 36.00222 | -120.77309 | 34894 ft | 430 kts | 143° |
| 2026-04-26 04:50 | 35.95590 | -120.72610 | 34900 ft | 431 kts | 143° |
| 2026-04-26 04:51 | 35.90953 | -120.67911 | 34891 ft | 431 kts | 143° |
| 2026-04-26 04:51 | 35.86305 | -120.63212 | 34736 ft | 433 kts | 143° |
| 2026-04-26 04:52 | 35.83978 | -120.60860 | 34594 ft | 432 kts | 143° |
| 2026-04-26 04:52 | 35.81654 | -120.58514 | 34448 ft | 432 kts | 143° |
| 2026-04-26 04:52 | 35.79313 | -120.56154 | 34302 ft | 431 kts | 143° |
| 2026-04-26 04:52 | 35.76985 | -120.53807 | 34157 ft | 430 kts | 143° |
| 2026-04-26 04:53 | 35.74665 | -120.51470 | 34014 ft | 430 kts | 143° |
| 2026-04-26 04:53 | 35.72338 | -120.49129 | 33621 ft | 433 kts | 143° |
| 2026-04-26 04:53 | 35.70017 | -120.46796 | 33264 ft | 432 kts | 143° |
| 2026-04-26 04:53 | 35.67675 | -120.44447 | 32841 ft | 427 kts | 143° |
| 2026-04-26 04:54 | 35.65412 | -120.42179 | 32221 ft | 425 kts | 143° |
| 2026-04-26 04:54 | 35.63102 | -120.39868 | 31397 ft | 428 kts | 142° |
| 2026-04-26 04:54 | 35.60783 | -120.37547 | 30989 ft | 431 kts | 142° |
| 2026-04-26 04:54 | 35.58455 | -120.35196 | 30926 ft | 435 kts | 141° |
| 2026-04-26 04:55 | 35.53845 | -120.30366 | 30900 ft | 437 kts | 142° |
| 2026-04-26 04:55 | 35.49217 | -120.25538 | 30911 ft | 436 kts | 142° |
| 2026-04-26 04:56 | 35.44495 | -120.20620 | 30763 ft | 456 kts | 142° |
| 2026-04-26 04:56 | 35.42070 | -120.18097 | 30426 ft | 457 kts | 142° |
| 2026-04-26 04:56 | 35.39654 | -120.15584 | 30060 ft | 455 kts | 142° |
| 2026-04-26 04:57 | 35.37237 | -120.13075 | 29661 ft | 450 kts | 142° |
| 2026-04-26 04:57 | 35.34868 | -120.10614 | 29270 ft | 447 kts | 142° |
| 2026-04-26 04:57 | 35.32503 | -120.08163 | 28892 ft | 445 kts | 142° |
| 2026-04-26 04:57 | 35.30140 | -120.05714 | 28500 ft | 443 kts | 142° |
| 2026-04-26 04:58 | 35.27791 | -120.03282 | 28122 ft | 441 kts | 142° |
| 2026-04-26 04:58 | 35.25469 | -120.00880 | 27736 ft | 438 kts | 142° |
| 2026-04-26 04:58 | 35.23128 | -119.98460 | 27350 ft | 436 kts | 142° |
| 2026-04-26 04:58 | 35.20850 | -119.96107 | 26970 ft | 433 kts | 142° |
| 2026-04-26 04:59 | 35.18534 | -119.93716 | 26592 ft | 431 kts | 142° |
| 2026-04-26 04:59 | 35.16242 | -119.91352 | 26215 ft | 428 kts | 142° |
| 2026-04-26 04:59 | 35.13982 | -119.89023 | 25838 ft | 426 kts | 142° |
| 2026-04-26 04:59 | 35.11708 | -119.86681 | 25459 ft | 424 kts | 142° |
| 2026-04-26 05:00 | 35.09452 | -119.84360 | 25084 ft | 423 kts | 142° |
| 2026-04-26 05:00 | 35.07229 | -119.82074 | 24716 ft | 420 kts | 142° |
| 2026-04-26 05:00 | 35.04998 | -119.79781 | 24343 ft | 417 kts | 142° |
| 2026-04-26 05:00 | 35.02765 | -119.77490 | 24046 ft | 424 kts | 142° |
| 2026-04-26 05:01 | 35.00476 | -119.75143 | 24127 ft | 435 kts | 142° |
| 2026-04-26 05:01 | 34.98186 | -119.72793 | 23951 ft | 423 kts | 142° |
| 2026-04-26 05:01 | 34.95951 | -119.70503 | 23458 ft | 412 kts | 142° |
| 2026-04-26 05:01 | 34.93805 | -119.68306 | 22960 ft | 404 kts | 143° |
| 2026-04-26 05:02 | 34.91645 | -119.66097 | 22465 ft | 402 kts | 143° |
| 2026-04-26 05:02 | 34.89504 | -119.63909 | 21991 ft | 401 kts | 143° |
| 2026-04-26 05:02 | 34.87411 | -119.61662 | 21494 ft | 402 kts | 135° |
| 2026-04-26 05:02 | 34.85618 | -119.59064 | 21012 ft | 401 kts | 131° |
| 2026-04-26 05:03 | 34.83886 | -119.56481 | 20402 ft | 397 kts | 131° |
| 2026-04-26 05:03 | 34.82145 | -119.53888 | 19778 ft | 390 kts | 131° |
| 2026-04-26 05:03 | 34.80456 | -119.51376 | 19165 ft | 383 kts | 131° |
| 2026-04-26 05:03 | 34.78778 | -119.48880 | 18555 ft | 377 kts | 131° |
| 2026-04-26 05:04 | 34.77138 | -119.46428 | 17957 ft | 372 kts | 131° |
| 2026-04-26 05:04 | 34.75558 | -119.44014 | 17376 ft | 368 kts | 131° |
| 2026-04-26 05:04 | 34.73966 | -119.41581 | 16780 ft | 363 kts | 131° |
| 2026-04-26 05:04 | 34.72400 | -119.39191 | 16186 ft | 359 kts | 131° |
| 2026-04-26 05:05 | 34.70853 | -119.36829 | 15596 ft | 356 kts | 131° |
| 2026-04-26 05:05 | 34.69320 | -119.34492 | 15008 ft | 353 kts | 132° |
| 2026-04-26 05:05 | 34.67794 | -119.32168 | 14408 ft | 350 kts | 132° |
| 2026-04-26 05:05 | 34.66281 | -119.29864 | 13935 ft | 342 kts | 132° |
| 2026-04-26 05:06 | 34.64828 | -119.27650 | 13890 ft | 327 kts | 131° |
| 2026-04-26 05:06 | 34.63577 | -119.25359 | 13887 ft | 322 kts | 124° |
| 2026-04-26 05:06 | 34.62416 | -119.23006 | 13895 ft | 325 kts | 124° |
| 2026-04-26 05:06 | 34.61247 | -119.20638 | 13490 ft | 331 kts | 124° |
| 2026-04-26 05:07 | 34.60069 | -119.18252 | 13018 ft | 327 kts | 124° |
| 2026-04-26 05:07 | 34.58914 | -119.15913 | 12550 ft | 323 kts | 124° |
| 2026-04-26 05:07 | 34.57772 | -119.13603 | 12079 ft | 318 kts | 124° |
| 2026-04-26 05:07 | 34.56767 | -119.11208 | 11597 ft | 316 kts | 113° |
| 2026-04-26 05:08 | 34.56014 | -119.08749 | 11131 ft | 312 kts | 112° |
| 2026-04-26 05:08 | 34.55246 | -119.06296 | 10910 ft | 301 kts | 118° |
| 2026-04-26 05:08 | 34.54000 | -119.04461 | 10908 ft | 274 kts | 147° |
| 2026-04-26 05:08 | 34.52496 | -119.03136 | 10675 ft | 267 kts | 149° |
| 2026-04-26 05:09 | 34.50956 | -119.01838 | 10201 ft | 268 kts | 149° |
| 2026-04-26 05:09 | 34.49416 | -119.00562 | 9750 ft | 268 kts | 149° |
| 2026-04-26 05:09 | 34.47884 | -118.99300 | 9298 ft | 268 kts | 149° |
| 2026-04-26 05:09 | 34.46340 | -118.98034 | 8948 ft | 263 kts | 149° |
| 2026-04-26 05:10 | 34.44844 | -118.96809 | 8797 ft | 255 kts | 149° |
| 2026-04-26 05:10 | 34.43361 | -118.95609 | 8381 ft | 257 kts | 149° |
| 2026-04-26 05:10 | 34.41885 | -118.94417 | 8006 ft | 254 kts | 149° |
| 2026-04-26 05:10 | 34.40440 | -118.93250 | 7961 ft | 246 kts | 150° |
| 2026-04-26 05:11 | 34.39014 | -118.92101 | 7959 ft | 248 kts | 150° |
| 2026-04-26 05:11 | 34.37557 | -118.90925 | 7977 ft | 251 kts | 148° |
| 2026-04-26 05:11 | 34.36205 | -118.89545 | 7960 ft | 255 kts | 141° |
| 2026-04-26 05:11 | 34.34888 | -118.88099 | 7957 ft | 256 kts | 141° |
| 2026-04-26 05:12 | 34.33574 | -118.86657 | 7955 ft | 255 kts | 141° |
| 2026-04-26 05:12 | 34.32297 | -118.85255 | 7853 ft | 244 kts | 141° |
| 2026-04-26 05:12 | 34.31028 | -118.83862 | 7461 ft | 244 kts | 139° |
| 2026-04-26 05:12 | 34.29843 | -118.82423 | 7112 ft | 243 kts | 140° |
| 2026-04-26 05:13 | 34.28592 | -118.81078 | 6957 ft | 231 kts | 143° |
| 2026-04-26 05:13 | 34.27377 | -118.79866 | 6940 ft | 223 kts | 144° |
| 2026-04-26 05:13 | 34.26403 | -118.78381 | 6925 ft | 228 kts | 116° |
| 2026-04-26 05:13 | 34.25785 | -118.76667 | 6752 ft | 221 kts | 116° |
| 2026-04-26 05:14 | 34.25172 | -118.74969 | 6459 ft | 219 kts | 116° |
| 2026-04-26 05:14 | 34.24557 | -118.73283 | 6121 ft | 220 kts | 116° |
| 2026-04-26 05:14 | 34.23957 | -118.71642 | 5676 ft | 213 kts | 116° |
| 2026-04-26 05:14 | 34.23358 | -118.70013 | 5133 ft | 217 kts | 116° |
| 2026-04-26 05:15 | 34.22760 | -118.68382 | 4708 ft | 208 kts | 116° |
| 2026-04-26 05:15 | 34.22179 | -118.66805 | 4194 ft | 204 kts | 116° |
| 2026-04-26 05:15 | 34.21617 | -118.65279 | 3835 ft | 191 kts | 115° |
| 2026-04-26 05:15 | 34.21096 | -118.63862 | 3621 ft | 171 kts | 116° |
| 2026-04-26 05:16 | 34.20626 | -118.62585 | 3636 ft | 165 kts | 116° |
| 2026-04-26 05:16 | 34.20179 | -118.61277 | 3661 ft | 171 kts | 103° |
| 2026-04-26 05:16 | 34.20101 | -118.59858 | 3684 ft | 173 kts | 91° |
| 2026-04-26 05:16 | 34.20079 | -118.58426 | 3639 ft | 164 kts | 92° |
| 2026-04-26 05:17 | 34.20058 | -118.57064 | 3483 ft | 164 kts | 92° |
| 2026-04-26 05:17 | 34.20025 | -118.55692 | 3177 ft | 162 kts | 92° |
| 2026-04-26 05:17 | 34.19992 | -118.54373 | 3084 ft | 154 kts | 90° |
| 2026-04-26 05:17 | 34.19982 | -118.53065 | 3085 ft | 156 kts | 90° |
| 2026-04-26 05:18 | 34.19970 | -118.51750 | 3075 ft | 158 kts | 91° |
| 2026-04-26 05:18 | 34.19955 | -118.50429 | 2970 ft | 160 kts | 91° |
| 2026-04-26 05:18 | 34.19939 | -118.49100 | 2775 ft | 157 kts | 91° |
| 2026-04-26 05:18 | 34.19922 | -118.47778 | 2567 ft | 155 kts | 92° |
| 2026-04-26 05:19 | 34.19908 | -118.46483 | 2366 ft | 154 kts | 91° |
| 2026-04-26 05:19 | 34.19895 | -118.45194 | 2159 ft | 152 kts | 92° |
| 2026-04-26 05:19 | 34.19882 | -118.43925 | 1936 ft | 150 kts | 92° |
| 2026-04-26 05:19 | 34.19870 | -118.42699 | 1694 ft | 146 kts | 93° |
| 2026-04-26 05:20 | 34.19853 | -118.41502 | 1514 ft | 142 kts | 92° |
| 2026-04-26 05:20 | 34.19838 | -118.40301 | 1357 ft | 144 kts | 92° |
| 2026-04-26 05:20 | 34.19828 | -118.39110 | 1188 ft | 141 kts | 92° |
| 2026-04-26 05:20 | 34.19807 | -118.37913 | 995 ft | 141 kts | 92° |
| 2026-04-26 05:21 | 34.19789 | -118.36762 | 795 ft | 133 kts | 92° |
| 2026-04-26 05:21 | 34.19770 | -118.35770 | 785 ft | 91 kts | 90° |
| 2026-04-26 05:21 | 34.19767 | -118.35290 | 785 ft | 27 kts | 89° |
| 2026-04-26 05:21 | 34.19780 | -118.35137 | 785 ft | 15 kts | 61° |
| 2026-04-26 05:22 | 34.19832 | -118.35081 | 785 ft | 6 kts | 10° |
| 2026-04-26 05:22 | 34.19862 | -118.35091 | 785 ft | 5 kts | 320° |
| 2026-04-26 05:22 | 34.19875 | -118.35124 | 785 ft | 1 kts | 280° |
| 2026-04-26 05:23 | 34.19876 | -118.35125 | 785 ft | 0 kts | 279° |
| 2026-04-26 05:24 | 34.19877 | -118.35132 | 785 ft | 2 kts | 274° |
| 2026-04-26 05:24 | 34.19870 | -118.35157 | 785 ft | 3 kts | 234° |
| 2026-04-26 05:24 | 34.19848 | -118.35187 | 785 ft | 6 kts | 226° |
| 2026-04-26 05:24 | 34.19810 | -118.35232 | 785 ft | 8 kts | 225° |
| 2026-04-26 05:25 | 34.19774 | -118.35296 | 785 ft | 10 kts | 256° |
| 2026-04-26 05:25 | 34.19771 | -118.35391 | 785 ft | 12 kts | 269° |
| 2026-04-26 05:25 | 34.19770 | -118.35498 | 785 ft | 13 kts | 268° |
| 2026-04-26 05:25 | 34.19744 | -118.35582 | 785 ft | 9 kts | 196° |
| 2026-04-26 05:26 | 34.19689 | -118.35564 | 785 ft | 3 kts | 162° |
| 2026-04-26 05:26 | 34.19685 | -118.35562 | 785 ft | 0 kts | 150° |
| 2026-04-26 05:26 | 34.19684 | -118.35560 | 785 ft | 0 kts | 111° |
| 2026-04-26 05:26 | 34.19680 | -118.35546 | 785 ft | 2 kts | 109° |
| 2026-04-26 05:27 | 34.19672 | -118.35526 | 785 ft | 3 kts | 126° |
| 2026-04-26 05:27 | 34.19657 | -118.35506 | 785 ft | 2 kts | 130° |
| 2026-04-26 05:27 | 34.19652 | -118.35500 | 785 ft | 0 kts | 133° |